sensor_id;sensor_type;location;lat;lon;timestamp;P1;durP1;ratioP1;P2;durP2;ratioP2
75550;SDS011;65071;53.082;18.218;2023-05-10T00:00:15;4.00;;;1.80;;
75550;SDS011;65071;53.082;18.218;2023-05-10T00:03:02;4.30;;;1.70;;
75550;SDS011;65071;53.082;18.218;2023-05-10T00:05:31;4.30;;;2.00;;
75550;SDS011;65071;53.082;18.218;2023-05-10T00:07:57;1.90;;;1.50;;
75550;SDS011;65071;53.082;18.218;2023-05-10T00:10:24;3.70;;;2.10;;
75550;SDS011;65071;53.082;18.218;2023-05-10T00:12:50;3.00;;;1.80;;
75550;SDS011;65071;53.082;18.218;2023-05-10T00:15:17;5.10;;;2.20;;
75550;SDS011;65071;53.082;18.218;2023-05-10T00:17:43;2.60;;;1.30;;
75550;SDS011;65071;53.082;18.218;2023-05-10T00:20:10;4.40;;;2.40;;
75550;SDS011;65071;53.082;18.218;2023-05-10T00:22:37;3.30;;;1.90;;
75550;SDS011;65071;53.082;18.218;2023-05-10T00:25:03;4.60;;;2.20;;
75550;SDS011;65071;53.082;18.218;2023-05-10T00:27:30;2.90;;;2.10;;
75550;SDS011;65071;53.082;18.218;2023-05-10T00:29:57;3.20;;;1.80;;
75550;SDS011;65071;53.082;18.218;2023-05-10T00:32:23;3.60;;;1.80;;
75550;SDS011;65071;53.082;18.218;2023-05-10T00:34:50;6.10;;;2.40;;
75550;SDS011;65071;53.082;18.218;2023-05-10T00:37:17;3.60;;;2.20;;
75550;SDS011;65071;53.082;18.218;2023-05-10T00:39:43;7.10;;;2.30;;
75550;SDS011;65071;53.082;18.218;2023-05-10T00:42:11;2.70;;;2.10;;
75550;SDS011;65071;53.082;18.218;2023-05-10T00:44:37;5.20;;;2.30;;
75550;SDS011;65071;53.082;18.218;2023-05-10T00:47:05;5.40;;;2.60;;
75550;SDS011;65071;53.082;18.218;2023-05-10T00:49:32;3.80;;;2.40;;
75550;SDS011;65071;53.082;18.218;2023-05-10T00:51:58;4.60;;;2.40;;
75550;SDS011;65071;53.082;18.218;2023-05-10T00:54:26;3.40;;;1.60;;
75550;SDS011;65071;53.082;18.218;2023-05-10T00:56:52;4.20;;;2.40;;
75550;SDS011;65071;53.082;18.218;2023-05-10T00:59:19;3.90;;;2.00;;
75550;SDS011;65071;53.082;18.218;2023-05-10T01:01:46;3.60;;;2.30;;
75550;SDS011;65071;53.082;18.218;2023-05-10T01:04:13;3.10;;;1.90;;
75550;SDS011;65071;53.082;18.218;2023-05-10T01:06:41;2.30;;;1.50;;
75550;SDS011;65071;53.082;18.218;2023-05-10T01:09:09;2.60;;;2.00;;
75550;SDS011;65071;53.082;18.218;2023-05-10T01:11:36;4.10;;;2.40;;
75550;SDS011;65071;53.082;18.218;2023-05-10T01:14:04;3.90;;;2.30;;
75550;SDS011;65071;53.082;18.218;2023-05-10T01:16:32;4.00;;;2.20;;
75550;SDS011;65071;53.082;18.218;2023-05-10T01:19:06;2.70;;;1.60;;
75550;SDS011;65071;53.082;18.218;2023-05-10T01:21:48;3.80;;;2.50;;
75550;SDS011;65071;53.082;18.218;2023-05-10T01:30:08;3.60;;;2.50;;
75550;SDS011;65071;53.082;18.218;2023-05-10T01:38:04;4.20;;;2.50;;
75550;SDS011;65071;53.082;18.218;2023-05-10T01:41:03;4.20;;;2.10;;
75550;SDS011;65071;53.082;18.218;2023-05-10T01:43:52;4.00;;;2.10;;
75550;SDS011;65071;53.082;18.218;2023-05-10T01:46:40;3.80;;;2.10;;
75550;SDS011;65071;53.082;18.218;2023-05-10T01:49:20;4.30;;;2.30;;
75550;SDS011;65071;53.082;18.218;2023-05-10T01:51:53;4.80;;;2.40;;
75550;SDS011;65071;53.082;18.218;2023-05-10T01:54:25;3.30;;;2.20;;
75550;SDS011;65071;53.082;18.218;2023-05-10T01:56:55;3.50;;;2.30;;
75550;SDS011;65071;53.082;18.218;2023-05-10T01:59:30;2.30;;;1.60;;
75550;SDS011;65071;53.082;18.218;2023-05-10T02:02:02;5.20;;;2.50;;
75550;SDS011;65071;53.082;18.218;2023-05-10T02:04:31;4.10;;;2.30;;
75550;SDS011;65071;53.082;18.218;2023-05-10T02:07:01;3.10;;;2.20;;
75550;SDS011;65071;53.082;18.218;2023-05-10T02:09:28;4.20;;;2.50;;
75550;SDS011;65071;53.082;18.218;2023-05-10T02:11:57;3.50;;;1.90;;
75550;SDS011;65071;53.082;18.218;2023-05-10T02:14:26;4.10;;;2.40;;
75550;SDS011;65071;53.082;18.218;2023-05-10T02:16:53;2.70;;;1.40;;
75550;SDS011;65071;53.082;18.218;2023-05-10T02:19:22;3.30;;;2.20;;
75550;SDS011;65071;53.082;18.218;2023-05-10T02:21:50;4.00;;;2.50;;
75550;SDS011;65071;53.082;18.218;2023-05-10T02:24:17;4.80;;;2.30;;
75550;SDS011;65071;53.082;18.218;2023-05-10T02:26:45;5.60;;;2.10;;
75550;SDS011;65071;53.082;18.218;2023-05-10T02:29:15;3.40;;;2.30;;
75550;SDS011;65071;53.082;18.218;2023-05-10T02:31:43;3.90;;;2.30;;
75550;SDS011;65071;53.082;18.218;2023-05-10T02:34:10;4.00;;;2.00;;
75550;SDS011;65071;53.082;18.218;2023-05-10T02:36:38;5.10;;;2.50;;
75550;SDS011;65071;53.082;18.218;2023-05-10T02:39:06;5.70;;;2.40;;
75550;SDS011;65071;53.082;18.218;2023-05-10T02:41:40;3.30;;;2.20;;
75550;SDS011;65071;53.082;18.218;2023-05-10T02:44:08;2.90;;;2.30;;
75550;SDS011;65071;53.082;18.218;2023-05-10T02:46:37;3.40;;;2.30;;
75550;SDS011;65071;53.082;18.218;2023-05-10T02:49:03;6.60;;;2.60;;
75550;SDS011;65071;53.082;18.218;2023-05-10T02:51:31;6.20;;;3.00;;
75550;SDS011;65071;53.082;18.218;2023-05-10T02:54:03;4.20;;;2.30;;
75550;SDS011;65071;53.082;18.218;2023-05-10T02:56:36;3.80;;;2.50;;
75550;SDS011;65071;53.082;18.218;2023-05-10T02:59:08;3.20;;;2.00;;
75550;SDS011;65071;53.082;18.218;2023-05-10T03:01:35;2.80;;;2.00;;
75550;SDS011;65071;53.082;18.218;2023-05-10T03:04:01;3.40;;;1.90;;
75550;SDS011;65071;53.082;18.218;2023-05-10T03:06:28;5.00;;;2.30;;
75550;SDS011;65071;53.082;18.218;2023-05-10T03:08:54;3.10;;;2.00;;
75550;SDS011;65071;53.082;18.218;2023-05-10T03:11:24;6.20;;;2.50;;
75550;SDS011;65071;53.082;18.218;2023-05-10T03:14:07;4.00;;;2.40;;
75550;SDS011;65071;53.082;18.218;2023-05-10T03:16:52;4.10;;;2.20;;
75550;SDS011;65071;53.082;18.218;2023-05-10T03:19:46;4.40;;;2.30;;
75550;SDS011;65071;53.082;18.218;2023-05-10T03:22:21;3.80;;;2.20;;
75550;SDS011;65071;53.082;18.218;2023-05-10T03:24:56;4.00;;;2.30;;
75550;SDS011;65071;53.082;18.218;2023-05-10T03:27:25;6.00;;;2.60;;
75550;SDS011;65071;53.082;18.218;2023-05-10T03:29:53;3.70;;;2.20;;
75550;SDS011;65071;53.082;18.218;2023-05-10T03:32:22;5.60;;;2.90;;
75550;SDS011;65071;53.082;18.218;2023-05-10T03:34:49;3.40;;;2.20;;
75550;SDS011;65071;53.082;18.218;2023-05-10T03:37:15;6.30;;;2.40;;
75550;SDS011;65071;53.082;18.218;2023-05-10T03:39:42;3.20;;;2.00;;
75550;SDS011;65071;53.082;18.218;2023-05-10T03:42:09;4.80;;;3.00;;
75550;SDS011;65071;53.082;18.218;2023-05-10T03:44:41;3.60;;;2.10;;
75550;SDS011;65071;53.082;18.218;2023-05-10T03:47:08;3.60;;;2.40;;
75550;SDS011;65071;53.082;18.218;2023-05-10T03:49:35;4.90;;;2.90;;
75550;SDS011;65071;53.082;18.218;2023-05-10T03:52:02;4.80;;;2.20;;
75550;SDS011;65071;53.082;18.218;2023-05-10T03:54:28;3.40;;;2.20;;
75550;SDS011;65071;53.082;18.218;2023-05-10T03:56:55;3.70;;;2.40;;
75550;SDS011;65071;53.082;18.218;2023-05-10T03:59:21;4.80;;;2.10;;
75550;SDS011;65071;53.082;18.218;2023-05-10T04:01:48;3.30;;;2.40;;
75550;SDS011;65071;53.082;18.218;2023-05-10T04:04:14;5.00;;;2.40;;
75550;SDS011;65071;53.082;18.218;2023-05-10T04:06:41;3.70;;;2.60;;
75550;SDS011;65071;53.082;18.218;2023-05-10T04:09:08;4.70;;;2.90;;
75550;SDS011;65071;53.082;18.218;2023-05-10T04:11:34;3.70;;;2.00;;
75550;SDS011;65071;53.082;18.218;2023-05-10T04:14:01;2.70;;;1.80;;
75550;SDS011;65071;53.082;18.218;2023-05-10T04:16:27;4.90;;;2.80;;
75550;SDS011;65071;53.082;18.218;2023-05-10T04:18:54;3.30;;;2.20;;
75550;SDS011;65071;53.082;18.218;2023-05-10T04:21:20;4.40;;;2.80;;
75550;SDS011;65071;53.082;18.218;2023-05-10T04:23:47;3.60;;;2.20;;
75550;SDS011;65071;53.082;18.218;2023-05-10T04:26:14;7.20;;;3.00;;
75550;SDS011;65071;53.082;18.218;2023-05-10T04:28:40;4.40;;;2.50;;
75550;SDS011;65071;53.082;18.218;2023-05-10T04:31:08;4.40;;;2.60;;
75550;SDS011;65071;53.082;18.218;2023-05-10T04:33:36;3.80;;;2.20;;
75550;SDS011;65071;53.082;18.218;2023-05-10T04:36:03;3.40;;;1.90;;
75550;SDS011;65071;53.082;18.218;2023-05-10T04:38:30;4.00;;;2.50;;
75550;SDS011;65071;53.082;18.218;2023-05-10T04:41:04;2.90;;;1.80;;
75550;SDS011;65071;53.082;18.218;2023-05-10T04:43:34;4.50;;;2.40;;
75550;SDS011;65071;53.082;18.218;2023-05-10T04:46:01;4.70;;;2.40;;
75550;SDS011;65071;53.082;18.218;2023-05-10T04:48:28;5.80;;;2.60;;
75550;SDS011;65071;53.082;18.218;2023-05-10T04:50:55;3.60;;;2.00;;
75550;SDS011;65071;53.082;18.218;2023-05-10T04:53:22;3.90;;;2.10;;
75550;SDS011;65071;53.082;18.218;2023-05-10T04:55:49;3.40;;;1.90;;
75550;SDS011;65071;53.082;18.218;2023-05-10T04:58:15;4.10;;;2.70;;
75550;SDS011;65071;53.082;18.218;2023-05-10T05:00:42;3.20;;;2.30;;
75550;SDS011;65071;53.082;18.218;2023-05-10T05:03:08;2.90;;;2.10;;
75550;SDS011;65071;53.082;18.218;2023-05-10T05:05:35;4.00;;;2.00;;
75550;SDS011;65071;53.082;18.218;2023-05-10T05:08:02;3.30;;;2.20;;
75550;SDS011;65071;53.082;18.218;2023-05-10T05:10:28;3.50;;;2.10;;
75550;SDS011;65071;53.082;18.218;2023-05-10T05:12:56;4.00;;;2.40;;
75550;SDS011;65071;53.082;18.218;2023-05-10T05:15:22;3.70;;;2.20;;
75550;SDS011;65071;53.082;18.218;2023-05-10T05:17:49;6.50;;;2.20;;
75550;SDS011;65071;53.082;18.218;2023-05-10T05:20:15;3.30;;;1.80;;
75550;SDS011;65071;53.082;18.218;2023-05-10T05:22:42;3.60;;;2.10;;
75550;SDS011;65071;53.082;18.218;2023-05-10T05:25:08;4.90;;;2.30;;
75550;SDS011;65071;53.082;18.218;2023-05-10T05:27:35;5.20;;;2.40;;
75550;SDS011;65071;53.082;18.218;2023-05-10T05:30:02;3.80;;;2.10;;
75550;SDS011;65071;53.082;18.218;2023-05-10T05:32:29;3.50;;;1.80;;
75550;SDS011;65071;53.082;18.218;2023-05-10T05:34:56;3.80;;;2.20;;
75550;SDS011;65071;53.082;18.218;2023-05-10T05:37:23;4.30;;;2.00;;
75550;SDS011;65071;53.082;18.218;2023-05-10T05:39:50;3.70;;;2.30;;
75550;SDS011;65071;53.082;18.218;2023-05-10T05:42:17;4.00;;;2.20;;
75550;SDS011;65071;53.082;18.218;2023-05-10T05:44:44;4.40;;;2.10;;
75550;SDS011;65071;53.082;18.218;2023-05-10T05:47:11;2.90;;;2.00;;
75550;SDS011;65071;53.082;18.218;2023-05-10T05:49:41;4.20;;;1.90;;
75550;SDS011;65071;53.082;18.218;2023-05-10T05:52:08;5.50;;;2.00;;
75550;SDS011;65071;53.082;18.218;2023-05-10T05:54:35;3.00;;;1.50;;
75550;SDS011;65071;53.082;18.218;2023-05-10T05:57:02;3.80;;;1.80;;
75550;SDS011;65071;53.082;18.218;2023-05-10T05:59:30;2.90;;;1.20;;
75550;SDS011;65071;53.082;18.218;2023-05-10T06:01:57;3.20;;;1.50;;
75550;SDS011;65071;53.082;18.218;2023-05-10T06:04:23;2.90;;;1.90;;
75550;SDS011;65071;53.082;18.218;2023-05-10T06:06:50;2.50;;;1.40;;
75550;SDS011;65071;53.082;18.218;2023-05-10T06:09:17;3.70;;;1.80;;
75550;SDS011;65071;53.082;18.218;2023-05-10T06:11:44;2.50;;;1.10;;
75550;SDS011;65071;53.082;18.218;2023-05-10T06:14:11;3.20;;;1.50;;
75550;SDS011;65071;53.082;18.218;2023-05-10T06:16:38;2.90;;;1.80;;
75550;SDS011;65071;53.082;18.218;2023-05-10T06:19:04;3.10;;;1.80;;
75550;SDS011;65071;53.082;18.218;2023-05-10T06:21:31;2.50;;;1.40;;
75550;SDS011;65071;53.082;18.218;2023-05-10T06:23:58;2.80;;;1.60;;
75550;SDS011;65071;53.082;18.218;2023-05-10T06:26:25;2.80;;;1.50;;
75550;SDS011;65071;53.082;18.218;2023-05-10T06:28:51;2.80;;;1.40;;
75550;SDS011;65071;53.082;18.218;2023-05-10T06:31:18;3.00;;;1.40;;
75550;SDS011;65071;53.082;18.218;2023-05-10T06:33:45;3.00;;;1.90;;
75550;SDS011;65071;53.082;18.218;2023-05-10T06:36:12;4.70;;;1.70;;
75550;SDS011;65071;53.082;18.218;2023-05-10T06:38:39;3.20;;;1.60;;
75550;SDS011;65071;53.082;18.218;2023-05-10T06:41:06;3.00;;;1.60;;
75550;SDS011;65071;53.082;18.218;2023-05-10T06:43:33;2.00;;;1.30;;
75550;SDS011;65071;53.082;18.218;2023-05-10T06:46:00;1.90;;;1.40;;
75550;SDS011;65071;53.082;18.218;2023-05-10T06:48:26;4.00;;;1.50;;
75550;SDS011;65071;53.082;18.218;2023-05-10T06:50:54;2.00;;;1.20;;
75550;SDS011;65071;53.082;18.218;2023-05-10T06:53:21;2.50;;;1.60;;
75550;SDS011;65071;53.082;18.218;2023-05-10T06:55:51;1.70;;;1.40;;
75550;SDS011;65071;53.082;18.218;2023-05-10T06:58:21;1.80;;;1.50;;
75550;SDS011;65071;53.082;18.218;2023-05-10T07:00:47;2.40;;;1.40;;
75550;SDS011;65071;53.082;18.218;2023-05-10T07:03:24;3.50;;;1.20;;
75550;SDS011;65071;53.082;18.218;2023-05-10T07:05:52;2.70;;;1.60;;
75550;SDS011;65071;53.082;18.218;2023-05-10T07:08:19;3.50;;;1.50;;
75550;SDS011;65071;53.082;18.218;2023-05-10T07:10:46;2.50;;;1.60;;
75550;SDS011;65071;53.082;18.218;2023-05-10T07:13:12;1.90;;;1.30;;
75550;SDS011;65071;53.082;18.218;2023-05-10T07:15:39;2.10;;;1.50;;
75550;SDS011;65071;53.082;18.218;2023-05-10T07:18:06;4.90;;;1.80;;
75550;SDS011;65071;53.082;18.218;2023-05-10T07:20:33;2.40;;;1.40;;
75550;SDS011;65071;53.082;18.218;2023-05-10T07:23:00;2.20;;;1.40;;
75550;SDS011;65071;53.082;18.218;2023-05-10T07:25:27;2.30;;;1.20;;
75550;SDS011;65071;53.082;18.218;2023-05-10T07:27:54;2.20;;;1.10;;
75550;SDS011;65071;53.082;18.218;2023-05-10T07:30:21;1.40;;;1.10;;
75550;SDS011;65071;53.082;18.218;2023-05-10T07:32:50;2.90;;;1.60;;
75550;SDS011;65071;53.082;18.218;2023-05-10T07:35:17;1.90;;;1.40;;
75550;SDS011;65071;53.082;18.218;2023-05-10T07:37:44;2.00;;;1.40;;
75550;SDS011;65071;53.082;18.218;2023-05-10T07:40:13;2.50;;;1.60;;
75550;SDS011;65071;53.082;18.218;2023-05-10T07:42:40;1.60;;;1.20;;
75550;SDS011;65071;53.082;18.218;2023-05-10T07:45:08;3.50;;;1.70;;
75550;SDS011;65071;53.082;18.218;2023-05-10T07:47:35;1.40;;;1.30;;
75550;SDS011;65071;53.082;18.218;2023-05-10T07:50:01;2.50;;;1.40;;
75550;SDS011;65071;53.082;18.218;2023-05-10T07:52:28;2.20;;;1.40;;
75550;SDS011;65071;53.082;18.218;2023-05-10T07:54:55;2.00;;;1.30;;
75550;SDS011;65071;53.082;18.218;2023-05-10T07:57:23;2.80;;;1.30;;
75550;SDS011;65071;53.082;18.218;2023-05-10T07:59:50;3.80;;;1.60;;
75550;SDS011;65071;53.082;18.218;2023-05-10T08:02:17;2.10;;;1.20;;
75550;SDS011;65071;53.082;18.218;2023-05-10T08:04:44;2.50;;;1.20;;
75550;SDS011;65071;53.082;18.218;2023-05-10T08:07:11;3.10;;;1.50;;
75550;SDS011;65071;53.082;18.218;2023-05-10T08:09:37;3.50;;;1.40;;
75550;SDS011;65071;53.082;18.218;2023-05-10T08:12:04;3.70;;;1.50;;
75550;SDS011;65071;53.082;18.218;2023-05-10T08:14:32;2.60;;;1.30;;
75550;SDS011;65071;53.082;18.218;2023-05-10T08:16:58;4.80;;;1.30;;
75550;SDS011;65071;53.082;18.218;2023-05-10T08:19:25;1.90;;;1.10;;
75550;SDS011;65071;53.082;18.218;2023-05-10T08:21:52;2.00;;;1.30;;
75550;SDS011;65071;53.082;18.218;2023-05-10T08:24:19;2.20;;;1.30;;
75550;SDS011;65071;53.082;18.218;2023-05-10T08:26:46;4.30;;;1.60;;
75550;SDS011;65071;53.082;18.218;2023-05-10T08:29:14;2.70;;;1.40;;
75550;SDS011;65071;53.082;18.218;2023-05-10T08:31:41;2.10;;;1.20;;
75550;SDS011;65071;53.082;18.218;2023-05-10T08:34:08;1.60;;;1.10;;
75550;SDS011;65071;53.082;18.218;2023-05-10T08:36:34;1.60;;;1.10;;
75550;SDS011;65071;53.082;18.218;2023-05-10T08:39:01;1.30;;;1.20;;
75550;SDS011;65071;53.082;18.218;2023-05-10T08:41:28;2.60;;;1.10;;
75550;SDS011;65071;53.082;18.218;2023-05-10T08:43:56;2.00;;;1.30;;
75550;SDS011;65071;53.082;18.218;2023-05-10T08:46:22;2.10;;;1.20;;
75550;SDS011;65071;53.082;18.218;2023-05-10T08:48:50;1.60;;;1.30;;
75550;SDS011;65071;53.082;18.218;2023-05-10T08:51:18;3.90;;;1.20;;
75550;SDS011;65071;53.082;18.218;2023-05-10T08:53:50;1.90;;;1.30;;
75550;SDS011;65071;53.082;18.218;2023-05-10T08:56:16;2.70;;;1.20;;
75550;SDS011;65071;53.082;18.218;2023-05-10T08:58:44;2.90;;;1.00;;
75550;SDS011;65071;53.082;18.218;2023-05-10T09:01:10;3.40;;;1.20;;
75550;SDS011;65071;53.082;18.218;2023-05-10T09:03:39;1.40;;;1.20;;
75550;SDS011;65071;53.082;18.218;2023-05-10T09:06:06;2.60;;;1.20;;
75550;SDS011;65071;53.082;18.218;2023-05-10T09:08:34;2.90;;;1.20;;
75550;SDS011;65071;53.082;18.218;2023-05-10T09:11:02;4.10;;;1.50;;
75550;SDS011;65071;53.082;18.218;2023-05-10T09:13:29;3.40;;;1.20;;
75550;SDS011;65071;53.082;18.218;2023-05-10T09:15:57;3.50;;;1.40;;
75550;SDS011;65071;53.082;18.218;2023-05-10T09:18:24;3.90;;;1.50;;
75550;SDS011;65071;53.082;18.218;2023-05-10T09:20:50;2.00;;;1.30;;
75550;SDS011;65071;53.082;18.218;2023-05-10T09:23:17;4.20;;;1.20;;
75550;SDS011;65071;53.082;18.218;2023-05-10T09:25:44;1.80;;;1.20;;
75550;SDS011;65071;53.082;18.218;2023-05-10T09:28:11;3.10;;;1.50;;
75550;SDS011;65071;53.082;18.218;2023-05-10T09:30:38;3.20;;;1.50;;
75550;SDS011;65071;53.082;18.218;2023-05-10T09:33:05;2.00;;;1.20;;
75550;SDS011;65071;53.082;18.218;2023-05-10T09:35:35;4.20;;;1.40;;
75550;SDS011;65071;53.082;18.218;2023-05-10T09:38:03;1.80;;;1.40;;
75550;SDS011;65071;53.082;18.218;2023-05-10T09:40:31;1.90;;;1.00;;
75550;SDS011;65071;53.082;18.218;2023-05-10T09:43:02;2.50;;;1.40;;
75550;SDS011;65071;53.082;18.218;2023-05-10T10:07:31;2.30;;;1.40;;
75550;SDS011;65071;53.082;18.218;2023-05-10T10:09:59;4.60;;;1.60;;
75550;SDS011;65071;53.082;18.218;2023-05-10T10:12:26;1.70;;;1.10;;
75550;SDS011;65071;53.082;18.218;2023-05-10T10:14:54;4.40;;;1.30;;
75550;SDS011;65071;53.082;18.218;2023-05-10T10:17:22;2.90;;;1.60;;
75550;SDS011;65071;53.082;18.218;2023-05-10T10:19:54;5.30;;;1.90;;
75550;SDS011;65071;53.082;18.218;2023-05-10T10:22:21;2.30;;;1.20;;
75550;SDS011;65071;53.082;18.218;2023-05-10T10:24:48;2.00;;;1.70;;
75550;SDS011;65071;53.082;18.218;2023-05-10T10:27:23;1.70;;;1.20;;
75550;SDS011;65071;53.082;18.218;2023-05-10T10:30:10;6.00;;;1.40;;
75550;SDS011;65071;53.082;18.218;2023-05-10T10:36:19;3.20;;;1.50;;
75550;SDS011;65071;53.082;18.218;2023-05-10T10:41:27;2.70;;;1.40;;
75550;SDS011;65071;53.082;18.218;2023-05-10T10:57:43;4.70;;;2.00;;
75550;SDS011;65071;53.082;18.218;2023-05-10T11:00:29;2.60;;;1.40;;
75550;SDS011;65071;53.082;18.218;2023-05-10T11:07:51;3.20;;;1.60;;
75550;SDS011;65071;53.082;18.218;2023-05-10T11:10:20;2.50;;;1.30;;
75550;SDS011;65071;53.082;18.218;2023-05-10T11:12:51;4.80;;;1.80;;
75550;SDS011;65071;53.082;18.218;2023-05-10T11:15:28;6.00;;;1.40;;
75550;SDS011;65071;53.082;18.218;2023-05-10T11:23:10;2.40;;;1.50;;
75550;SDS011;65071;53.082;18.218;2023-05-10T11:25:42;2.60;;;1.40;;
75550;SDS011;65071;53.082;18.218;2023-05-10T11:28:10;3.10;;;1.80;;
75550;SDS011;65071;53.082;18.218;2023-05-10T11:30:38;1.50;;;1.30;;
75550;SDS011;65071;53.082;18.218;2023-05-10T11:33:06;1.50;;;1.20;;
75550;SDS011;65071;53.082;18.218;2023-05-10T11:35:40;4.90;;;1.40;;
75550;SDS011;65071;53.082;18.218;2023-05-10T11:38:10;3.50;;;1.60;;
75550;SDS011;65071;53.082;18.218;2023-05-10T11:40:38;2.20;;;1.10;;
75550;SDS011;65071;53.082;18.218;2023-05-10T11:43:06;2.20;;;1.30;;
75550;SDS011;65071;53.082;18.218;2023-05-10T11:45:33;2.70;;;1.20;;
75550;SDS011;65071;53.082;18.218;2023-05-10T11:48:00;2.60;;;1.40;;
75550;SDS011;65071;53.082;18.218;2023-05-10T11:50:27;2.50;;;1.50;;
75550;SDS011;65071;53.082;18.218;2023-05-10T11:52:55;3.60;;;1.40;;
75550;SDS011;65071;53.082;18.218;2023-05-10T11:55:22;3.30;;;1.30;;
75550;SDS011;65071;53.082;18.218;2023-05-10T11:57:53;3.80;;;1.30;;
75550;SDS011;65071;53.082;18.218;2023-05-10T12:00:20;2.60;;;1.10;;
75550;SDS011;65071;53.082;18.218;2023-05-10T12:02:48;4.50;;;1.80;;
75550;SDS011;65071;53.082;18.218;2023-05-10T12:05:15;2.10;;;1.40;;
75550;SDS011;65071;53.082;18.218;2023-05-10T12:07:42;2.70;;;1.20;;
75550;SDS011;65071;53.082;18.218;2023-05-10T12:10:09;2.40;;;1.30;;
75550;SDS011;65071;53.082;18.218;2023-05-10T12:12:37;2.50;;;1.30;;
75550;SDS011;65071;53.082;18.218;2023-05-10T12:15:05;2.80;;;1.70;;
75550;SDS011;65071;53.082;18.218;2023-05-10T12:17:37;6.40;;;1.90;;
75550;SDS011;65071;53.082;18.218;2023-05-10T12:20:18;2.00;;;0.90;;
75550;SDS011;65071;53.082;18.218;2023-05-10T12:22:54;3.90;;;1.20;;
75550;SDS011;65071;53.082;18.218;2023-05-10T12:25:22;3.50;;;1.60;;
75550;SDS011;65071;53.082;18.218;2023-05-10T12:27:51;4.70;;;1.50;;
75550;SDS011;65071;53.082;18.218;2023-05-10T12:32:49;4.30;;;1.40;;
75550;SDS011;65071;53.082;18.218;2023-05-10T12:35:16;3.30;;;1.20;;
75550;SDS011;65071;53.082;18.218;2023-05-10T12:37:45;2.10;;;1.20;;
75550;SDS011;65071;53.082;18.218;2023-05-10T12:40:11;2.20;;;1.20;;
75550;SDS011;65071;53.082;18.218;2023-05-10T12:42:39;2.20;;;1.20;;
75550;SDS011;65071;53.082;18.218;2023-05-10T12:45:06;2.90;;;1.40;;
75550;SDS011;65071;53.082;18.218;2023-05-10T12:47:34;6.80;;;1.50;;
75550;SDS011;65071;53.082;18.218;2023-05-10T12:50:01;4.60;;;1.40;;
75550;SDS011;65071;53.082;18.218;2023-05-10T12:52:28;1.50;;;1.30;;
75550;SDS011;65071;53.082;18.218;2023-05-10T12:54:56;2.20;;;1.00;;
75550;SDS011;65071;53.082;18.218;2023-05-10T12:57:22;2.90;;;1.40;;
75550;SDS011;65071;53.082;18.218;2023-05-10T12:59:56;5.40;;;1.20;;
75550;SDS011;65071;53.082;18.218;2023-05-10T13:02:23;3.80;;;1.40;;
75550;SDS011;65071;53.082;18.218;2023-05-10T13:04:50;4.10;;;1.30;;
75550;SDS011;65071;53.082;18.218;2023-05-10T13:07:17;2.40;;;1.10;;
75550;SDS011;65071;53.082;18.218;2023-05-10T13:09:44;2.10;;;1.20;;
75550;SDS011;65071;53.082;18.218;2023-05-10T13:12:11;3.20;;;1.30;;
75550;SDS011;65071;53.082;18.218;2023-05-10T13:14:37;2.40;;;1.50;;
75550;SDS011;65071;53.082;18.218;2023-05-10T13:17:06;1.50;;;1.20;;
75550;SDS011;65071;53.082;18.218;2023-05-10T13:19:33;3.00;;;1.60;;
75550;SDS011;65071;53.082;18.218;2023-05-10T13:21:59;3.80;;;1.50;;
75550;SDS011;65071;53.082;18.218;2023-05-10T13:24:26;2.70;;;1.30;;
75550;SDS011;65071;53.082;18.218;2023-05-10T13:26:52;4.60;;;1.50;;
75550;SDS011;65071;53.082;18.218;2023-05-10T13:29:19;3.60;;;1.40;;
75550;SDS011;65071;53.082;18.218;2023-05-10T13:31:47;4.10;;;1.60;;
75550;SDS011;65071;53.082;18.218;2023-05-10T13:34:14;2.50;;;1.30;;
75550;SDS011;65071;53.082;18.218;2023-05-10T13:36:40;4.10;;;1.30;;
75550;SDS011;65071;53.082;18.218;2023-05-10T13:39:07;3.80;;;1.60;;
75550;SDS011;65071;53.082;18.218;2023-05-10T13:41:34;4.50;;;1.70;;
75550;SDS011;65071;53.082;18.218;2023-05-10T13:44:01;1.50;;;1.00;;
75550;SDS011;65071;53.082;18.218;2023-05-10T13:46:28;2.00;;;1.50;;
75550;SDS011;65071;53.082;18.218;2023-05-10T13:48:56;4.30;;;1.50;;
75550;SDS011;65071;53.082;18.218;2023-05-10T13:51:23;2.10;;;1.20;;
75550;SDS011;65071;53.082;18.218;2023-05-10T13:53:49;1.60;;;1.20;;
75550;SDS011;65071;53.082;18.218;2023-05-10T13:59:58;2.00;;;1.10;;
75550;SDS011;65071;53.082;18.218;2023-05-10T14:02:25;10.90;;;1.60;;
75550;SDS011;65071;53.082;18.218;2023-05-10T14:04:53;3.10;;;1.60;;
75550;SDS011;65071;53.082;18.218;2023-05-10T14:07:20;3.70;;;1.80;;
75550;SDS011;65071;53.082;18.218;2023-05-10T14:09:48;3.90;;;1.70;;
75550;SDS011;65071;53.082;18.218;2023-05-10T14:12:14;4.50;;;1.60;;
75550;SDS011;65071;53.082;18.218;2023-05-10T14:14:41;4.50;;;1.50;;
75550;SDS011;65071;53.082;18.218;2023-05-10T14:17:08;2.80;;;1.80;;
75550;SDS011;65071;53.082;18.218;2023-05-10T14:19:34;3.60;;;1.60;;
75550;SDS011;65071;53.082;18.218;2023-05-10T14:22:01;1.80;;;1.40;;
75550;SDS011;65071;53.082;18.218;2023-05-10T14:24:28;3.40;;;1.30;;
75550;SDS011;65071;53.082;18.218;2023-05-10T14:26:54;4.00;;;1.50;;
75550;SDS011;65071;53.082;18.218;2023-05-10T14:29:21;2.00;;;1.50;;
75550;SDS011;65071;53.082;18.218;2023-05-10T14:31:48;4.10;;;1.50;;
75550;SDS011;65071;53.082;18.218;2023-05-10T14:34:14;2.20;;;1.30;;
75550;SDS011;65071;53.082;18.218;2023-05-10T14:39:10;3.60;;;1.50;;
75550;SDS011;65071;53.082;18.218;2023-05-10T14:41:39;4.00;;;1.70;;
75550;SDS011;65071;53.082;18.218;2023-05-10T14:44:07;2.30;;;1.50;;
75550;SDS011;65071;53.082;18.218;2023-05-10T14:46:34;2.50;;;1.50;;
75550;SDS011;65071;53.082;18.218;2023-05-10T14:49:01;2.10;;;1.30;;
75550;SDS011;65071;53.082;18.218;2023-05-10T14:51:27;1.90;;;1.50;;
75550;SDS011;65071;53.082;18.218;2023-05-10T14:57:33;3.70;;;2.20;;
75550;SDS011;65071;53.082;18.218;2023-05-10T15:00:00;3.40;;;1.60;;
75550;SDS011;65071;53.082;18.218;2023-05-10T15:02:27;3.80;;;1.70;;
75550;SDS011;65071;53.082;18.218;2023-05-10T15:04:54;3.20;;;1.60;;
75550;SDS011;65071;53.082;18.218;2023-05-10T15:10:06;1.80;;;1.20;;
75550;SDS011;65071;53.082;18.218;2023-05-10T15:12:33;3.90;;;1.80;;
75550;SDS011;65071;53.082;18.218;2023-05-10T15:15:00;2.10;;;1.60;;
75550;SDS011;65071;53.082;18.218;2023-05-10T15:17:27;3.20;;;1.50;;
75550;SDS011;65071;53.082;18.218;2023-05-10T15:19:53;2.20;;;1.50;;
75550;SDS011;65071;53.082;18.218;2023-05-10T15:22:20;2.30;;;1.50;;
75550;SDS011;65071;53.082;18.218;2023-05-10T15:24:47;2.30;;;1.40;;
75550;SDS011;65071;53.082;18.218;2023-05-10T15:27:14;2.80;;;1.50;;
75550;SDS011;65071;53.082;18.218;2023-05-10T15:29:40;2.80;;;1.50;;
75550;SDS011;65071;53.082;18.218;2023-05-10T15:32:07;2.80;;;1.30;;
75550;SDS011;65071;53.082;18.218;2023-05-10T15:34:34;4.00;;;1.50;;
75550;SDS011;65071;53.082;18.218;2023-05-10T15:37:01;3.90;;;1.50;;
75550;SDS011;65071;53.082;18.218;2023-05-10T15:39:27;5.20;;;1.30;;
75550;SDS011;65071;53.082;18.218;2023-05-10T15:41:54;5.40;;;1.30;;
75550;SDS011;65071;53.082;18.218;2023-05-10T15:44:20;3.00;;;1.70;;
75550;SDS011;65071;53.082;18.218;2023-05-10T15:46:48;2.70;;;1.40;;
75550;SDS011;65071;53.082;18.218;2023-05-10T15:49:14;2.50;;;1.50;;
75550;SDS011;65071;53.082;18.218;2023-05-10T15:51:41;2.70;;;1.70;;
75550;SDS011;65071;53.082;18.218;2023-05-10T15:54:08;3.30;;;1.70;;
75550;SDS011;65071;53.082;18.218;2023-05-10T15:56:34;2.80;;;1.50;;